sensor_id;sensor_type;location;lat;lon;timestamp;P1;durP1;ratioP1;P2;durP2;ratioP2
14907;SDS011;7545;52.092;7.006;2022-08-11T00:00:00;2.22;;;2.03;;
14907;SDS011;7545;52.092;7.006;2022-08-11T00:02:32;2.08;;;1.60;;
14907;SDS011;7545;52.092;7.006;2022-08-11T00:05:02;2.47;;;1.45;;
14907;SDS011;7545;52.092;7.006;2022-08-11T00:07:30;2.83;;;2.00;;
14907;SDS011;7545;52.092;7.006;2022-08-11T00:09:56;1.85;;;1.50;;
14907;SDS011;7545;52.092;7.006;2022-08-11T00:12:23;2.25;;;1.90;;
14907;SDS011;7545;52.092;7.006;2022-08-11T00:14:56;2.13;;;1.70;;
14907;SDS011;7545;52.092;7.006;2022-08-11T00:17:27;2.80;;;2.15;;
14907;SDS011;7545;52.092;7.006;2022-08-11T00:19:59;3.67;;;1.80;;
14907;SDS011;7545;52.092;7.006;2022-08-11T00:22:31;3.25;;;1.88;;
14907;SDS011;7545;52.092;7.006;2022-08-11T00:24:57;2.38;;;1.45;;
14907;SDS011;7545;52.092;7.006;2022-08-11T00:27:33;6.00;;;2.08;;
14907;SDS011;7545;52.092;7.006;2022-08-11T00:30:00;5.85;;;2.63;;
14907;SDS011;7545;52.092;7.006;2022-08-11T00:32:28;2.75;;;2.10;;
14907;SDS011;7545;52.092;7.006;2022-08-11T00:34:54;1.63;;;1.52;;
14907;SDS011;7545;52.092;7.006;2022-08-11T00:37:22;4.45;;;1.58;;
14907;SDS011;7545;52.092;7.006;2022-08-11T00:39:49;2.38;;;1.83;;
14907;SDS011;7545;52.092;7.006;2022-08-11T00:45:26;2.42;;;1.65;;
14907;SDS011;7545;52.092;7.006;2022-08-11T00:48:14;1.77;;;1.65;;
14907;SDS011;7545;52.092;7.006;2022-08-11T00:53:37;3.33;;;1.80;;
14907;SDS011;7545;52.092;7.006;2022-08-11T01:02:08;2.35;;;1.95;;
14907;SDS011;7545;52.092;7.006;2022-08-11T01:07:48;4.53;;;2.03;;
14907;SDS011;7545;52.092;7.006;2022-08-11T01:24:40;3.13;;;2.22;;
14907;SDS011;7545;52.092;7.006;2022-08-11T01:28:07;4.78;;;2.20;;
14907;SDS011;7545;52.092;7.006;2022-08-11T01:47:30;2.22;;;2.03;;
14907;SDS011;7545;52.092;7.006;2022-08-11T01:58:44;3.70;;;1.80;;
14907;SDS011;7545;52.092;7.006;2022-08-11T02:07:03;2.42;;;1.85;;
14907;SDS011;7545;52.092;7.006;2022-08-11T02:14:56;2.65;;;2.45;;
14907;SDS011;7545;52.092;7.006;2022-08-11T02:20:27;3.65;;;2.25;;
14907;SDS011;7545;52.092;7.006;2022-08-11T02:23:32;2.63;;;2.05;;
14907;SDS011;7545;52.092;7.006;2022-08-11T02:26:21;2.30;;;2.10;;
14907;SDS011;7545;52.092;7.006;2022-08-11T02:31:42;6.90;;;2.72;;
14907;SDS011;7545;52.092;7.006;2022-08-11T02:43:10;2.85;;;2.40;;
14907;SDS011;7545;52.092;7.006;2022-08-11T02:56:41;7.03;;;2.63;;
14907;SDS011;7545;52.092;7.006;2022-08-11T02:59:27;4.20;;;3.28;;
14907;SDS011;7545;52.092;7.006;2022-08-11T03:24:57;4.93;;;3.20;;
14907;SDS011;7545;52.092;7.006;2022-08-11T03:27:40;2.60;;;2.20;;
14907;SDS011;7545;52.092;7.006;2022-08-11T03:30:17;4.05;;;2.55;;
14907;SDS011;7545;52.092;7.006;2022-08-11T03:35:37;4.65;;;2.58;;
14907;SDS011;7545;52.092;7.006;2022-08-11T03:38:18;4.53;;;2.05;;
14907;SDS011;7545;52.092;7.006;2022-08-11T03:40:57;4.53;;;2.60;;
14907;SDS011;7545;52.092;7.006;2022-08-11T03:44:06;5.38;;;2.75;;
14907;SDS011;7545;52.092;7.006;2022-08-11T03:52:48;3.03;;;2.50;;
14907;SDS011;7545;52.092;7.006;2022-08-11T03:58:32;4.10;;;2.80;;
14907;SDS011;7545;52.092;7.006;2022-08-11T04:18:19;7.22;;;3.00;;
14907;SDS011;7545;52.092;7.006;2022-08-11T04:32:28;5.25;;;3.35;;
14907;SDS011;7545;52.092;7.006;2022-08-11T04:38:15;4.13;;;2.83;;
14907;SDS011;7545;52.092;7.006;2022-08-11T04:46:55;3.67;;;2.45;;
14907;SDS011;7545;52.092;7.006;2022-08-11T04:49:44;3.83;;;2.70;;
14907;SDS011;7545;52.092;7.006;2022-08-11T04:53:07;3.50;;;3.20;;
14907;SDS011;7545;52.092;7.006;2022-08-11T04:56:06;5.22;;;3.67;;
14907;SDS011;7545;52.092;7.006;2022-08-11T05:02:44;5.13;;;3.33;;
14907;SDS011;7545;52.092;7.006;2022-08-11T05:13:29;2.78;;;2.40;;
14907;SDS011;7545;52.092;7.006;2022-08-11T05:16:18;4.13;;;2.88;;
14907;SDS011;7545;52.092;7.006;2022-08-11T05:19:06;3.88;;;2.35;;
14907;SDS011;7545;52.092;7.006;2022-08-11T05:21:54;5.47;;;2.90;;
14907;SDS011;7545;52.092;7.006;2022-08-11T05:27:26;5.20;;;3.30;;
14907;SDS011;7545;52.092;7.006;2022-08-11T05:30:18;5.43;;;3.30;;
14907;SDS011;7545;52.092;7.006;2022-08-11T05:33:13;4.35;;;3.22;;
14907;SDS011;7545;52.092;7.006;2022-08-11T05:36:11;4.60;;;3.05;;
14907;SDS011;7545;52.092;7.006;2022-08-11T05:38:56;4.60;;;3.00;;
14907;SDS011;7545;52.092;7.006;2022-08-11T05:41:44;2.72;;;2.53;;
14907;SDS011;7545;52.092;7.006;2022-08-11T05:44:30;4.22;;;2.80;;
14907;SDS011;7545;52.092;7.006;2022-08-11T05:47:22;4.57;;;3.00;;
14907;SDS011;7545;52.092;7.006;2022-08-11T05:50:09;3.17;;;2.78;;
14907;SDS011;7545;52.092;7.006;2022-08-11T05:52:54;5.97;;;2.80;;
14907;SDS011;7545;52.092;7.006;2022-08-11T05:55:40;3.00;;;2.70;;
14907;SDS011;7545;52.092;7.006;2022-08-11T05:58:36;6.40;;;2.70;;
14907;SDS011;7545;52.092;7.006;2022-08-11T06:01:04;4.80;;;2.88;;
14907;SDS011;7545;52.092;7.006;2022-08-11T06:03:31;3.08;;;2.78;;
14907;SDS011;7545;52.092;7.006;2022-08-11T06:06:22;3.22;;;2.58;;
14907;SDS011;7545;52.092;7.006;2022-08-11T06:08:54;3.65;;;2.92;;
14907;SDS011;7545;52.092;7.006;2022-08-11T06:11:20;4.57;;;2.60;;
14907;SDS011;7545;52.092;7.006;2022-08-11T06:13:48;4.28;;;3.15;;
14907;SDS011;7545;52.092;7.006;2022-08-11T06:16:19;6.28;;;2.70;;
14907;SDS011;7545;52.092;7.006;2022-08-11T06:18:47;3.15;;;2.60;;
14907;SDS011;7545;52.092;7.006;2022-08-11T06:21:13;5.32;;;2.55;;
14907;SDS011;7545;52.092;7.006;2022-08-11T06:23:41;2.97;;;2.67;;
14907;SDS011;7545;52.092;7.006;2022-08-11T06:26:09;4.10;;;2.83;;
14907;SDS011;7545;52.092;7.006;2022-08-11T06:28:37;4.78;;;2.58;;
14907;SDS011;7545;52.092;7.006;2022-08-11T06:31:25;8.43;;;2.80;;
14907;SDS011;7545;52.092;7.006;2022-08-11T06:47:59;3.38;;;2.97;;
14907;SDS011;7545;52.092;7.006;2022-08-11T06:50:27;4.90;;;2.45;;
14907;SDS011;7545;52.092;7.006;2022-08-11T06:53:14;4.53;;;2.25;;
14907;SDS011;7545;52.092;7.006;2022-08-11T06:55:42;6.05;;;2.22;;
14907;SDS011;7545;52.092;7.006;2022-08-11T06:58:30;2.83;;;1.98;;
14907;SDS011;7545;52.092;7.006;2022-08-11T07:01:19;3.28;;;2.17;;
14907;SDS011;7545;52.092;7.006;2022-08-11T07:04:06;3.10;;;2.40;;
14907;SDS011;7545;52.092;7.006;2022-08-11T07:06:53;2.83;;;1.98;;
14907;SDS011;7545;52.092;7.006;2022-08-11T07:13:02;2.40;;;1.42;;
14907;SDS011;7545;52.092;7.006;2022-08-11T07:15:47;4.85;;;1.98;;
14907;SDS011;7545;52.092;7.006;2022-08-11T07:18:20;3.65;;;1.55;;
14907;SDS011;7545;52.092;7.006;2022-08-11T07:21:09;2.72;;;1.48;;
14907;SDS011;7545;52.092;7.006;2022-08-11T07:24:16;2.17;;;1.50;;
14907;SDS011;7545;52.092;7.006;2022-08-11T07:27:03;3.58;;;1.73;;
14907;SDS011;7545;52.092;7.006;2022-08-11T07:29:51;1.33;;;1.23;;
14907;SDS011;7545;52.092;7.006;2022-08-11T07:32:27;2.40;;;1.40;;
14907;SDS011;7545;52.092;7.006;2022-08-11T07:35:03;1.90;;;1.40;;
14907;SDS011;7545;52.092;7.006;2022-08-11T07:37:46;3.25;;;1.58;;
14907;SDS011;7545;52.092;7.006;2022-08-11T07:40:18;3.00;;;1.40;;
14907;SDS011;7545;52.092;7.006;2022-08-11T07:42:47;2.50;;;1.42;;
14907;SDS011;7545;52.092;7.006;2022-08-11T07:45:13;3.92;;;1.30;;
14907;SDS011;7545;52.092;7.006;2022-08-11T07:47:58;2.22;;;1.48;;
14907;SDS011;7545;52.092;7.006;2022-08-11T07:50:43;2.13;;;1.65;;
14907;SDS011;7545;52.092;7.006;2022-08-11T07:53:29;4.00;;;1.33;;
14907;SDS011;7545;52.092;7.006;2022-08-11T07:55:58;2.42;;;1.35;;
14907;SDS011;7545;52.092;7.006;2022-08-11T07:58:26;2.33;;;1.35;;
14907;SDS011;7545;52.092;7.006;2022-08-11T08:01:11;1.70;;;1.30;;
14907;SDS011;7545;52.092;7.006;2022-08-11T08:04:01;3.10;;;1.40;;
14907;SDS011;7545;52.092;7.006;2022-08-11T08:06:48;2.85;;;1.30;;
14907;SDS011;7545;52.092;7.006;2022-08-11T08:09:33;1.33;;;1.23;;
14907;SDS011;7545;52.092;7.006;2022-08-11T08:12:22;1.23;;;1.10;;
14907;SDS011;7545;52.092;7.006;2022-08-11T08:15:08;2.85;;;1.30;;
14907;SDS011;7545;52.092;7.006;2022-08-11T08:17:57;3.17;;;1.40;;
14907;SDS011;7545;52.092;7.006;2022-08-11T08:20:26;1.77;;;1.23;;
14907;SDS011;7545;52.092;7.006;2022-08-11T08:22:56;1.40;;;1.30;;
14907;SDS011;7545;52.092;7.006;2022-08-11T08:25:27;1.50;;;1.40;;
14907;SDS011;7545;52.092;7.006;2022-08-11T08:27:55;1.70;;;1.50;;
14907;SDS011;7545;52.092;7.006;2022-08-11T08:30:23;2.20;;;1.30;;
14907;SDS011;7545;52.092;7.006;2022-08-11T08:33:11;2.13;;;1.50;;
14907;SDS011;7545;52.092;7.006;2022-08-11T08:35:42;4.05;;;1.45;;
14907;SDS011;7545;52.092;7.006;2022-08-11T08:38:09;1.95;;;1.40;;
14907;SDS011;7545;52.092;7.006;2022-08-11T08:40:36;1.90;;;1.33;;
14907;SDS011;7545;52.092;7.006;2022-08-11T08:43:06;3.35;;;1.50;;
14907;SDS011;7545;52.092;7.006;2022-08-11T08:45:39;1.90;;;1.38;;
14907;SDS011;7545;52.092;7.006;2022-08-11T08:48:13;3.08;;;1.92;;
14907;SDS011;7545;52.092;7.006;2022-08-11T08:51:23;2.17;;;1.50;;
14907;SDS011;7545;52.092;7.006;2022-08-11T08:53:52;3.70;;;1.77;;
14907;SDS011;7545;52.092;7.006;2022-08-11T08:56:26;2.17;;;1.55;;
14907;SDS011;7545;52.092;7.006;2022-08-11T08:58:52;5.85;;;1.95;;
14907;SDS011;7545;52.092;7.006;2022-08-11T09:01:22;1.90;;;1.30;;
14907;SDS011;7545;52.092;7.006;2022-08-11T09:03:49;4.07;;;1.63;;
14907;SDS011;7545;52.092;7.006;2022-08-11T09:06:15;2.75;;;1.27;;
14907;SDS011;7545;52.092;7.006;2022-08-11T09:08:41;3.83;;;2.10;;
14907;SDS011;7545;52.092;7.006;2022-08-11T09:11:08;2.42;;;1.48;;
14907;SDS011;7545;52.092;7.006;2022-08-11T09:13:53;3.80;;;1.70;;
14907;SDS011;7545;52.092;7.006;2022-08-11T09:16:20;3.72;;;1.55;;
14907;SDS011;7545;52.092;7.006;2022-08-11T09:18:47;2.45;;;1.80;;
14907;SDS011;7545;52.092;7.006;2022-08-11T09:21:14;2.13;;;1.50;;
14907;SDS011;7545;52.092;7.006;2022-08-11T09:23:44;3.00;;;1.65;;
14907;SDS011;7545;52.092;7.006;2022-08-11T09:26:30;1.73;;;1.52;;
14907;SDS011;7545;52.092;7.006;2022-08-11T09:29:14;4.10;;;1.77;;
14907;SDS011;7545;52.092;7.006;2022-08-11T09:31:40;4.00;;;2.08;;
14907;SDS011;7545;52.092;7.006;2022-08-11T09:34:07;3.28;;;1.60;;
14907;SDS011;7545;52.092;7.006;2022-08-11T09:36:35;2.90;;;1.52;;
14907;SDS011;7545;52.092;7.006;2022-08-11T09:39:22;3.00;;;1.75;;
14907;SDS011;7545;52.092;7.006;2022-08-11T09:42:06;1.40;;;1.20;;
14907;SDS011;7545;52.092;7.006;2022-08-11T09:44:33;2.70;;;1.80;;
14907;SDS011;7545;52.092;7.006;2022-08-11T09:49:57;1.98;;;1.50;;
14907;SDS011;7545;52.092;7.006;2022-08-11T09:52:24;1.95;;;1.70;;
14907;SDS011;7545;52.092;7.006;2022-08-11T09:54:51;2.47;;;1.75;;
14907;SDS011;7545;52.092;7.006;2022-08-11T09:57:19;3.00;;;1.65;;
14907;SDS011;7545;52.092;7.006;2022-08-11T10:00:07;3.17;;;2.53;;
14907;SDS011;7545;52.092;7.006;2022-08-11T10:02:38;4.28;;;1.63;;
14907;SDS011;7545;52.092;7.006;2022-08-11T10:05:09;3.60;;;1.85;;
14907;SDS011;7545;52.092;7.006;2022-08-11T10:07:57;2.13;;;1.92;;
14907;SDS011;7545;52.092;7.006;2022-08-11T10:10:25;3.22;;;1.70;;
14907;SDS011;7545;52.092;7.006;2022-08-11T10:12:58;3.70;;;2.00;;
14907;SDS011;7545;52.092;7.006;2022-08-11T10:15:28;2.65;;;1.80;;
14907;SDS011;7545;52.092;7.006;2022-08-11T10:18:05;2.47;;;1.70;;
14907;SDS011;7545;52.092;7.006;2022-08-11T10:20:54;2.33;;;1.55;;
14907;SDS011;7545;52.092;7.006;2022-08-11T10:23:24;3.13;;;1.90;;
14907;SDS011;7545;52.092;7.006;2022-08-11T10:26:10;2.63;;;1.23;;
14907;SDS011;7545;52.092;7.006;2022-08-11T10:28:55;3.10;;;1.52;;
14907;SDS011;7545;52.092;7.006;2022-08-11T10:31:21;3.25;;;1.77;;
14907;SDS011;7545;52.092;7.006;2022-08-11T10:34:07;2.60;;;2.03;;
14907;SDS011;7545;52.092;7.006;2022-08-11T10:36:40;2.85;;;1.67;;
14907;SDS011;7545;52.092;7.006;2022-08-11T10:39:14;2.42;;;1.58;;
14907;SDS011;7545;52.092;7.006;2022-08-11T10:41:44;5.88;;;2.00;;
14907;SDS011;7545;52.092;7.006;2022-08-11T10:44:49;8.57;;;1.92;;
14907;SDS011;7545;52.092;7.006;2022-08-11T10:47:17;2.33;;;1.73;;
14907;SDS011;7545;52.092;7.006;2022-08-11T10:49:59;3.25;;;1.80;;
14907;SDS011;7545;52.092;7.006;2022-08-11T10:52:46;3.40;;;1.67;;
14907;SDS011;7545;52.092;7.006;2022-08-11T10:55:32;4.53;;;2.10;;
14907;SDS011;7545;52.092;7.006;2022-08-11T10:58:21;3.15;;;1.65;;
14907;SDS011;7545;52.092;7.006;2022-08-11T11:01:07;3.03;;;1.58;;
14907;SDS011;7545;52.092;7.006;2022-08-11T11:03:34;2.00;;;1.70;;
14907;SDS011;7545;52.092;7.006;2022-08-11T11:09:16;3.17;;;1.40;;
14907;SDS011;7545;52.092;7.006;2022-08-11T11:11:56;3.00;;;1.73;;
14907;SDS011;7545;52.092;7.006;2022-08-11T11:14:44;2.58;;;1.40;;
14907;SDS011;7545;52.092;7.006;2022-08-11T11:17:37;5.32;;;1.90;;
14907;SDS011;7545;52.092;7.006;2022-08-11T11:20:22;3.67;;;1.65;;
14907;SDS011;7545;52.092;7.006;2022-08-11T11:22:52;2.38;;;1.45;;
14907;SDS011;7545;52.092;7.006;2022-08-11T11:30:31;2.45;;;1.58;;
14907;SDS011;7545;52.092;7.006;2022-08-11T11:33:18;2.42;;;1.70;;
14907;SDS011;7545;52.092;7.006;2022-08-11T11:38:51;3.08;;;2.13;;
14907;SDS011;7545;52.092;7.006;2022-08-11T11:41:20;2.03;;;1.67;;
14907;SDS011;7545;52.092;7.006;2022-08-11T11:43:51;3.05;;;1.50;;
14907;SDS011;7545;52.092;7.006;2022-08-11T11:46:19;2.47;;;1.70;;
14907;SDS011;7545;52.092;7.006;2022-08-11T11:48:45;3.15;;;1.50;;
14907;SDS011;7545;52.092;7.006;2022-08-11T11:51:12;3.67;;;1.30;;
14907;SDS011;7545;52.092;7.006;2022-08-11T11:53:38;2.47;;;1.60;;
14907;SDS011;7545;52.092;7.006;2022-08-11T11:56:09;3.38;;;1.55;;
14907;SDS011;7545;52.092;7.006;2022-08-11T11:58:36;2.17;;;1.30;;
14907;SDS011;7545;52.092;7.006;2022-08-11T12:01:22;2.50;;;1.67;;
14907;SDS011;7545;52.092;7.006;2022-08-11T12:03:50;2.25;;;1.33;;
14907;SDS011;7545;52.092;7.006;2022-08-11T12:06:18;1.55;;;1.38;;
14907;SDS011;7545;52.092;7.006;2022-08-11T12:08:47;1.40;;;1.30;;
14907;SDS011;7545;52.092;7.006;2022-08-11T12:11:14;2.80;;;1.48;;
14907;SDS011;7545;52.092;7.006;2022-08-11T12:14:01;4.22;;;1.60;;
14907;SDS011;7545;52.092;7.006;2022-08-11T12:16:28;1.42;;;1.25;;
14907;SDS011;7545;52.092;7.006;2022-08-11T12:18:58;1.50;;;1.10;;
14907;SDS011;7545;52.092;7.006;2022-08-11T12:21:25;2.20;;;1.83;;
14907;SDS011;7545;52.092;7.006;2022-08-11T12:23:53;1.60;;;1.38;;
14907;SDS011;7545;52.092;7.006;2022-08-11T12:26:39;1.13;;;1.02;;
14907;SDS011;7545;52.092;7.006;2022-08-11T12:29:24;6.55;;;1.73;;
14907;SDS011;7545;52.092;7.006;2022-08-11T12:31:53;1.83;;;1.42;;
14907;SDS011;7545;52.092;7.006;2022-08-11T12:34:19;2.95;;;1.88;;
14907;SDS011;7545;52.092;7.006;2022-08-11T12:36:48;2.42;;;1.88;;
14907;SDS011;7545;52.092;7.006;2022-08-11T12:39:24;1.88;;;1.45;;
14907;SDS011;7545;52.092;7.006;2022-08-11T12:42:15;3.45;;;1.50;;
14907;SDS011;7545;52.092;7.006;2022-08-11T12:45:00;2.60;;;1.48;;
14907;SDS011;7545;52.092;7.006;2022-08-11T12:47:49;1.83;;;1.55;;
14907;SDS011;7545;52.092;7.006;2022-08-11T12:50:34;2.45;;;1.48;;
14907;SDS011;7545;52.092;7.006;2022-08-11T12:53:25;3.63;;;1.45;;
14907;SDS011;7545;52.092;7.006;2022-08-11T12:55:54;1.65;;;1.55;;
14907;SDS011;7545;52.092;7.006;2022-08-11T12:58:41;3.08;;;1.80;;
14907;SDS011;7545;52.092;7.006;2022-08-11T13:01:08;1.92;;;1.50;;
14907;SDS011;7545;52.092;7.006;2022-08-11T13:03:54;3.30;;;1.30;;
14907;SDS011;7545;52.092;7.006;2022-08-11T13:06:38;11.02;;;1.63;;
14907;SDS011;7545;52.092;7.006;2022-08-11T13:09:06;3.00;;;1.38;;
14907;SDS011;7545;52.092;7.006;2022-08-11T13:11:34;2.42;;;1.90;;
14907;SDS011;7545;52.092;7.006;2022-08-11T13:14:20;1.75;;;1.25;;
14907;SDS011;7545;52.092;7.006;2022-08-11T13:16:46;2.05;;;1.40;;
14907;SDS011;7545;52.092;7.006;2022-08-11T13:19:31;4.30;;;1.92;;
14907;SDS011;7545;52.092;7.006;2022-08-11T13:21:58;2.00;;;1.50;;
14907;SDS011;7545;52.092;7.006;2022-08-11T13:24:26;4.68;;;1.83;;
14907;SDS011;7545;52.092;7.006;2022-08-11T13:26:52;1.40;;;1.27;;
14907;SDS011;7545;52.092;7.006;2022-08-11T13:29:19;2.83;;;1.20;;
14907;SDS011;7545;52.092;7.006;2022-08-11T13:31:47;2.30;;;1.48;;
14907;SDS011;7545;52.092;7.006;2022-08-11T13:34:14;2.97;;;1.30;;
14907;SDS011;7545;52.092;7.006;2022-08-11T13:36:42;4.30;;;1.40;;
14907;SDS011;7545;52.092;7.006;2022-08-11T13:39:08;2.13;;;1.45;;
14907;SDS011;7545;52.092;7.006;2022-08-11T13:41:34;1.77;;;1.23;;
14907;SDS011;7545;52.092;7.006;2022-08-11T13:44:06;1.80;;;1.25;;
14907;SDS011;7545;52.092;7.006;2022-08-11T13:46:33;2.08;;;1.40;;
14907;SDS011;7545;52.092;7.006;2022-08-11T13:48:59;1.90;;;1.10;;
14907;SDS011;7545;52.092;7.006;2022-08-11T13:51:26;3.47;;;1.50;;
14907;SDS011;7545;52.092;7.006;2022-08-11T13:54:02;2.38;;;1.75;;
14907;SDS011;7545;52.092;7.006;2022-08-11T13:56:36;1.63;;;1.23;;
14907;SDS011;7545;52.092;7.006;2022-08-11T13:59:04;1.30;;;1.17;;
14907;SDS011;7545;52.092;7.006;2022-08-11T14:01:32;4.13;;;1.40;;
14907;SDS011;7545;52.092;7.006;2022-08-11T14:04:07;1.98;;;1.27;;
14907;SDS011;7545;52.092;7.006;2022-08-11T14:06:37;3.45;;;1.40;;
14907;SDS011;7545;52.092;7.006;2022-08-11T14:09:09;2.08;;;1.40;;
14907;SDS011;7545;52.092;7.006;2022-08-11T14:11:36;1.48;;;1.33;;
14907;SDS011;7545;52.092;7.006;2022-08-11T14:14:25;3.03;;;1.90;;
14907;SDS011;7545;52.092;7.006;2022-08-11T14:16:57;2.38;;;1.30;;
14907;SDS011;7545;52.092;7.006;2022-08-11T14:19:27;1.98;;;1.33;;
14907;SDS011;7545;52.092;7.006;2022-08-11T14:21:56;1.73;;;1.55;;
14907;SDS011;7545;52.092;7.006;2022-08-11T14:24:31;2.88;;;1.38;;
14907;SDS011;7545;52.092;7.006;2022-08-11T14:27:01;3.25;;;1.20;;
14907;SDS011;7545;52.092;7.006;2022-08-11T14:29:27;1.63;;;1.40;;
14907;SDS011;7545;52.092;7.006;2022-08-11T14:32:00;1.48;;;1.38;;
14907;SDS011;7545;52.092;7.006;2022-08-11T14:34:28;1.40;;;1.30;;
14907;SDS011;7545;52.092;7.006;2022-08-11T14:36:56;3.05;;;0.95;;
14907;SDS011;7545;52.092;7.006;2022-08-11T14:39:28;2.78;;;1.10;;
14907;SDS011;7545;52.092;7.006;2022-08-11T14:42:01;2.05;;;1.08;;
14907;SDS011;7545;52.092;7.006;2022-08-11T14:44:48;1.40;;;1.25;;
14907;SDS011;7545;52.092;7.006;2022-08-11T14:47:35;1.80;;;0.98;;
14907;SDS011;7545;52.092;7.006;2022-08-11T14:50:04;3.00;;;1.25;;
14907;SDS011;7545;52.092;7.006;2022-08-11T14:52:32;2.22;;;1.50;;
14907;SDS011;7545;52.092;7.006;2022-08-11T14:54:59;8.60;;;1.70;;
14907;SDS011;7545;52.092;7.006;2022-08-11T14:57:44;1.90;;;1.48;;
14907;SDS011;7545;52.092;7.006;2022-08-11T15:00:12;2.58;;;1.20;;
14907;SDS011;7545;52.092;7.006;2022-08-11T15:02:39;1.20;;;1.10;;
14907;SDS011;7545;52.092;7.006;2022-08-11T15:05:25;1.30;;;1.10;;
14907;SDS011;7545;52.092;7.006;2022-08-11T15:07:52;2.13;;;1.25;;
14907;SDS011;7545;52.092;7.006;2022-08-11T15:10:19;2.30;;;1.05;;
14907;SDS011;7545;52.092;7.006;2022-08-11T15:12:46;1.52;;;1.27;;
14907;SDS011;7545;52.092;7.006;2022-08-11T15:15:13;5.70;;;1.38;;
14907;SDS011;7545;52.092;7.006;2022-08-11T15:18:00;2.25;;;1.27;;
14907;SDS011;7545;52.092;7.006;2022-08-11T15:20:29;3.38;;;1.40;;
14907;SDS011;7545;52.092;7.006;2022-08-11T15:23:14;2.67;;;1.10;;
14907;SDS011;7545;52.092;7.006;2022-08-11T15:25:59;1.98;;;1.10;;
14907;SDS011;7545;52.092;7.006;2022-08-11T15:28:33;1.10;;;1.00;;
14907;SDS011;7545;52.092;7.006;2022-08-11T15:31:21;1.50;;;1.20;;
14907;SDS011;7545;52.092;7.006;2022-08-11T15:34:10;3.10;;;1.50;;
14907;SDS011;7545;52.092;7.006;2022-08-11T15:36:57;3.20;;;1.48;;
14907;SDS011;7545;52.092;7.006;2022-08-11T15:39:49;1.40;;;1.20;;
14907;SDS011;7545;52.092;7.006;2022-08-11T15:42:40;2.33;;;1.50;;
14907;SDS011;7545;52.092;7.006;2022-08-11T15:45:35;1.25;;;1.15;;
14907;SDS011;7545;52.092;7.006;2022-08-11T15:48:34;1.77;;;1.40;;
14907;SDS011;7545;52.092;7.006;2022-08-11T15:51:08;1.90;;;1.20;;
14907;SDS011;7545;52.092;7.006;2022-08-11T15:53:45;1.52;;;1.10;;
14907;SDS011;7545;52.092;7.006;2022-08-11T15:56:14;1.33;;;1.23;;
14907;SDS011;7545;52.092;7.006;2022-08-11T15:58:42;1.30;;;1.08;;
14907;SDS011;7545;52.092;7.006;2022-08-11T16:01:29;1.50;;;1.27;;
14907;SDS011;7545;52.092;7.006;2022-08-11T16:04:16;5.20;;;1.40;;
14907;SDS011;7545;52.092;7.006;2022-08-11T16:09:31;1.73;;;1.15;;
14907;SDS011;7545;52.092;7.006;2022-08-11T16:12:02;3.47;;;1.40;;
14907;SDS011;7545;52.092;7.006;2022-08-11T16:14:33;3.17;;;1.20;;
14907;SDS011;7545;52.092;7.006;2022-08-11T16:17:20;1.45;;;0.98;;
14907;SDS011;7545;52.092;7.006;2022-08-11T16:19:50;1.92;;;1.23;;
14907;SDS011;7545;52.092;7.006;2022-08-11T16:22:21;3.08;;;1.00;;
14907;SDS011;7545;52.092;7.006;2022-08-11T16:24:55;1.55;;;1.27;;
14907;SDS011;7545;52.092;7.006;2022-08-11T16:27:22;1.15;;;1.05;;
14907;SDS011;7545;52.092;7.006;2022-08-11T16:29:49;1.48;;;1.10;;
14907;SDS011;7545;52.092;7.006;2022-08-11T16:32:20;2.63;;;1.17;;
14907;SDS011;7545;52.092;7.006;2022-08-11T16:34:58;2.75;;;1.20;;
14907;SDS011;7545;52.092;7.006;2022-08-11T16:37:44;1.77;;;1.30;;
14907;SDS011;7545;52.092;7.006;2022-08-11T16:40:29;1.20;;;1.00;;
14907;SDS011;7545;52.092;7.006;2022-08-11T16:42:56;2.30;;;1.40;;
14907;SDS011;7545;52.092;7.006;2022-08-11T16:45:41;1.80;;;1.23;;
14907;SDS011;7545;52.092;7.006;2022-08-11T16:48:29;1.83;;;0.95;;
14907;SDS011;7545;52.092;7.006;2022-08-11T16:50:56;1.40;;;1.30;;
14907;SDS011;7545;52.092;7.006;2022-08-11T16:53:26;1.73;;;1.20;;
14907;SDS011;7545;52.092;7.006;2022-08-11T16:55:53;3.35;;;1.55;;
14907;SDS011;7545;52.092;7.006;2022-08-11T16:58:20;2.88;;;1.15;;
14907;SDS011;7545;52.092;7.006;2022-08-11T17:01:07;1.17;;;0.95;;
14907;SDS011;7545;52.092;7.006;2022-08-11T17:03:34;1.50;;;1.20;;
14907;SDS011;7545;52.092;7.006;2022-08-11T17:06:26;2.85;;;1.27;;
14907;SDS011;7545;52.092;7.006;2022-08-11T17:09:10;3.35;;;1.40;;
14907;SDS011;7545;52.092;7.006;2022-08-11T17:12:00;2.30;;;1.30;;
14907;SDS011;7545;52.092;7.006;2022-08-11T17:14:57;1.90;;;1.38;;
14907;SDS011;7545;52.092;7.006;2022-08-11T17:17:31;1.42;;;1.17;;
14907;SDS011;7545;52.092;7.006;2022-08-11T17:20:00;2.50;;;1.25;;
14907;SDS011;7545;52.092;7.006;2022-08-11T17:22:31;1.20;;;1.00;;
14907;SDS011;7545;52.092;7.006;2022-08-11T17:25:18;2.08;;;1.67;;
14907;SDS011;7545;52.092;7.006;2022-08-11T17:27:45;2.88;;;1.40;;
14907;SDS011;7545;52.092;7.006;2022-08-11T17:30:14;2.13;;;1.20;;
14907;SDS011;7545;52.092;7.006;2022-08-11T17:32:41;1.02;;;0.85;;
14907;SDS011;7545;52.092;7.006;2022-08-11T17:35:39;4.57;;;1.30;;
14907;SDS011;7545;52.092;7.006;2022-08-11T17:38:15;6.03;;;1.30;;
14907;SDS011;7545;52.092;7.006;2022-08-11T17:40:48;2.33;;;1.50;;
14907;SDS011;7545;52.092;7.006;2022-08-11T17:43:37;1.70;;;0.95;;
14907;SDS011;7545;52.092;7.006;2022-08-11T17:46:22;2.47;;;1.38;;
14907;SDS011;7545;52.092;7.006;2022-08-11T17:49:08;1.85;;;1.30;;
14907;SDS011;7545;52.092;7.006;2022-08-11T17:51:37;2.30;;;1.27;;
14907;SDS011;7545;52.092;7.006;2022-08-11T17:54:24;3.05;;;1.10;;
14907;SDS011;7545;52.092;7.006;2022-08-11T17:57:09;2.08;;;1.08;;
14907;SDS011;7545;52.092;7.006;2022-08-11T17:59:55;1.70;;;1.40;;
14907;SDS011;7545;52.092;7.006;2022-08-11T18:02:27;1.33;;;1.10;;
14907;SDS011;7545;52.092;7.006;2022-08-11T18:05:12;1.75;;;1.23;;
14907;SDS011;7545;52.092;7.006;2022-08-11T18:07:42;2.70;;;1.10;;
14907;SDS011;7545;52.092;7.006;2022-08-11T18:10:29;2.95;;;0.95;;
14907;SDS011;7545;52.092;7.006;2022-08-11T18:13:19;1.73;;;0.98;;
14907;SDS011;7545;52.092;7.006;2022-08-11T18:16:05;2.08;;;1.45;;
14907;SDS011;7545;52.092;7.006;2022-08-11T18:18:50;3.35;;;1.25;;
14907;SDS011;7545;52.092;7.006;2022-08-11T18:21:35;1.20;;;1.10;;
14907;SDS011;7545;52.092;7.006;2022-08-11T18:24:21;2.53;;;1.40;;
14907;SDS011;7545;52.092;7.006;2022-08-11T18:27:08;2.33;;;1.40;;
14907;SDS011;7545;52.092;7.006;2022-08-11T18:29:55;1.23;;;0.90;;
14907;SDS011;7545;52.092;7.006;2022-08-11T18:32:43;1.52;;;1.17;;
14907;SDS011;7545;52.092;7.006;2022-08-11T18:35:30;2.40;;;1.13;;
14907;SDS011;7545;52.092;7.006;2022-08-11T18:38:17;2.47;;;1.40;;
14907;SDS011;7545;52.092;7.006;2022-08-11T18:41:03;3.53;;;1.38;;
14907;SDS011;7545;52.092;7.006;2022-08-11T18:43:48;4.50;;;1.35;;
14907;SDS011;7545;52.092;7.006;2022-08-11T18:46:35;2.17;;;1.10;;
14907;SDS011;7545;52.092;7.006;2022-08-11T18:49:22;1.35;;;1.08;;
14907;SDS011;7545;52.092;7.006;2022-08-11T18:52:09;3.70;;;1.50;;
14907;SDS011;7545;52.092;7.006;2022-08-11T18:54:56;2.55;;;1.50;;
14907;SDS011;7545;52.092;7.006;2022-08-11T18:57:43;4.85;;;1.10;;
14907;SDS011;7545;52.092;7.006;2022-08-11T19:00:31;1.58;;;1.38;;
14907;SDS011;7545;52.092;7.006;2022-08-11T19:03:17;3.30;;;1.50;;
14907;SDS011;7545;52.092;7.006;2022-08-11T19:06:03;2.53;;;1.55;;
14907;SDS011;7545;52.092;7.006;2022-08-11T19:08:52;3.90;;;1.67;;
14907;SDS011;7545;52.092;7.006;2022-08-11T19:11:40;2.08;;;1.30;;
14907;SDS011;7545;52.092;7.006;2022-08-11T19:14:28;1.77;;;1.17;;
14907;SDS011;7545;52.092;7.006;2022-08-11T19:17:13;4.57;;;1.20;;
14907;SDS011;7545;52.092;7.006;2022-08-11T19:19:58;3.15;;;1.45;;
14907;SDS011;7545;52.092;7.006;2022-08-11T19:22:45;3.83;;;1.50;;
14907;SDS011;7545;52.092;7.006;2022-08-11T19:25:31;2.60;;;1.83;;
14907;SDS011;7545;52.092;7.006;2022-08-11T19:28:17;1.98;;;1.45;;
14907;SDS011;7545;52.092;7.006;2022-08-11T19:31:03;2.40;;;1.50;;
14907;SDS011;7545;52.092;7.006;2022-08-11T19:33:50;1.98;;;1.45;;
14907;SDS011;7545;52.092;7.006;2022-08-11T19:36:34;2.03;;;1.25;;